Time;durP1;ratioP1;P1;durP2;ratioP2;P2;SDS_P1;SDS_P2;PMS_P1;PMS_P2;Temp;Humidity;BMP_temperature;BMP_pressure;BME280_temperature;BME280_humidity;BME280_pressure;Samples;Min_cycle;Max_cycle;Signal;HPM_P1;HPM_P2
2021/03/08 00:00:57;;;;;;;2.75;1.90;;;17.60;55.70;;;;;;10453624;28;20025;-55
2021/03/08 00:05:58;;;;;;;2.83;2.08;;;17.60;55.70;;;;;;10454877;28;20029;-55
2021/03/08 00:10:58;;;;;;;2.97;1.90;;;17.70;55.80;;;;;;10454652;28;20424;-55
2021/03/08 00:15:59;;;;;;;2.20;1.55;;;17.70;55.80;;;;;;10454500;28;20113;-55
2021/03/08 00:21:00;;;;;;;2.65;2.08;;;17.70;55.70;;;;;;10460427;28;20037;-55
2021/03/08 00:26:01;;;;;;;2.53;1.70;;;17.70;55.70;;;;;;10454248;28;20028;-55
2021/03/08 00:31:01;;;;;;;3.17;2.20;;;17.70;55.60;;;;;;10454506;28;20033;-55
2021/03/08 00:36:02;;;;;;;3.03;2.20;;;17.70;55.50;;;;;;10454902;28;20024;-55
2021/03/08 00:41:04;;;;;;;2.60;2.00;;;17.70;55.50;;;;;;10454091;28;20039;-55
2021/03/08 00:46:04;;;;;;;4.22;2.08;;;17.70;55.70;;;;;;10454248;28;20044;-55
2021/03/08 00:51:05;;;;;;;3.22;2.05;;;17.70;55.60;;;;;;10454077;28;20033;-55
2021/03/08 00:56:06;;;;;;;3.00;1.95;;;17.70;55.60;;;;;;10457807;28;20029;-55
2021/03/08 01:01:06;;;;;;;3.35;2.30;;;17.60;55.60;;;;;;10454081;28;20111;-55
2021/03/08 01:06:07;;;;;;;2.35;1.63;;;17.70;55.50;;;;;;10454511;28;20035;-55
2021/03/08 01:11:08;;;;;;;3.03;2.20;;;17.70;55.50;;;;;;10450271;28;20040;-55
2021/03/08 01:16:09;;;;;;;2.85;1.88;;;17.70;55.30;;;;;;10454009;28;20016;-55
2021/03/08 01:21:09;;;;;;;2.42;1.80;;;17.70;55.20;;;;;;10459113;28;20029;-55
2021/03/08 01:26:10;;;;;;;3.03;1.75;;;17.70;55.40;;;;;;10453660;28;20033;-55
2021/03/08 01:31:11;;;;;;;2.60;2.00;;;17.70;55.30;;;;;;10453488;28;20115;-56
2021/03/08 01:36:11;;;;;;;2.85;2.13;;;17.70;55.30;;;;;;10456970;28;20075;-56
2021/03/08 01:41:13;;;;;;;3.15;2.00;;;17.70;55.40;;;;;;10460791;28;20111;-55
2021/03/08 01:46:13;;;;;;;2.42;1.80;;;17.70;55.30;;;;;;10460404;28;20033;-56
2021/03/08 01:51:14;;;;;;;2.20;1.77;;;17.70;55.30;;;;;;10460421;28;20037;-55
2021/03/08 01:56:15;;;;;;;3.55;2.10;;;17.70;55.30;;;;;;10459965;28;20037;-54
2021/03/08 02:01:16;;;;;;;3.58;2.65;;;17.70;55.30;;;;;;10459816;28;20041;-54
2021/03/08 02:06:16;;;;;;;2.92;2.10;;;17.70;55.30;;;;;;10460187;28;20040;-55
2021/03/08 02:11:17;;;;;;;3.08;2.35;;;17.70;55.30;;;;;;10459086;28;20132;-55
2021/03/08 02:16:44;;;;;;;3.30;2.33;;;17.70;55.30;;;;;;10458942;28;20158;-54
2021/03/08 02:22:22;;;;;;;3.45;1.80;;;17.70;55.30;;;;;;10458797;28;20056;-55
2021/03/08 02:27:41;;;;;;;3.22;2.00;;;17.70;55.30;;;;;;10458706;28;20114;-55
2021/03/08 02:32:47;;;;;;;2.63;1.98;;;17.70;55.30;;;;;;10458209;28;20036;-55
2021/03/08 02:38:02;;;;;;;3.13;2.08;;;17.60;55.30;;;;;;10461248;28;20021;-55
2021/03/08 02:43:08;;;;;;;3.90;2.22;;;17.70;55.20;;;;;;10457055;28;20389;-55
2021/03/08 02:48:11;;;;;;;2.97;2.28;;;17.70;55.20;;;;;;10456515;28;20033;-55
2021/03/08 02:53:16;;;;;;;3.08;2.25;;;17.70;55.10;;;;;;10441259;28;20032;-55
2021/03/08 02:58:19;;;;;;;3.47;2.08;;;17.70;55.10;;;;;;10456144;28;20465;-55
2021/03/08 03:03:22;;;;;;;3.58;2.15;;;17.70;55.10;;;;;;10456250;28;20037;-54
2021/03/08 03:08:24;;;;;;;3.90;2.30;;;17.70;55.10;;;;;;10449321;28;20033;-54
2021/03/08 03:13:25;;;;;;;2.25;2.03;;;17.70;55.00;;;;;;10455276;28;20049;-55
2021/03/08 03:18:29;;;;;;;2.80;2.08;;;17.70;55.00;;;;;;10461317;28;20490;-56
2021/03/08 03:23:36;;;;;;;3.17;2.15;;;17.70;54.90;;;;;;10468726;28;20037;-56
2021/03/08 03:28:37;;;;;;;2.85;2.15;;;17.70;54.90;;;;;;10455456;28;20025;-56
2021/03/08 03:33:38;;;;;;;2.42;1.80;;;17.70;55.00;;;;;;10456980;28;20373;-55
2021/03/08 03:38:40;;;;;;;3.17;2.00;;;17.80;55.00;;;;;;10455110;28;20032;-56
2021/03/08 03:43:41;;;;;;;3.38;1.98;;;17.70;54.90;;;;;;10461998;28;20461;-55
2021/03/08 03:48:42;;;;;;;3.47;2.30;;;17.70;54.90;;;;;;10455946;28;20086;-56
2021/03/08 03:53:43;;;;;;;2.97;2.03;;;17.70;54.90;;;;;;10451462;28;20103;-55
2021/03/08 03:58:52;;;;;;;2.75;2.10;;;17.70;55.00;;;;;;10463195;28;20443;-55
2021/03/08 04:04:20;;;;;;;3.25;2.30;;;17.70;55.00;;;;;;10455542;28;20062;-55
2021/03/08 04:09:23;;;;;;;3.20;2.10;;;17.70;54.90;;;;;;10448077;28;20055;-55
2021/03/08 04:14:24;;;;;;;3.58;2.28;;;17.70;55.00;;;;;;10454671;28;20057;-55
2021/03/08 04:19:32;;;;;;;2.92;1.77;;;17.70;54.90;;;;;;10455110;28;20025;-55
2021/03/08 04:24:35;;;;;;;2.80;1.90;;;17.70;54.80;;;;;;10454966;28;20065;-55
2021/03/08 04:29:39;;;;;;;2.85;2.08;;;17.70;54.80;;;;;;10453632;28;20025;-55
2021/03/08 04:34:40;;;;;;;3.08;2.00;;;17.80;54.90;;;;;;10454262;28;20112;-54
2021/03/08 04:39:42;;;;;;;3.17;2.15;;;17.70;54.80;;;;;;10454110;28;20033;-54
2021/03/08 04:44:49;;;;;;;3.67;2.38;;;17.70;54.90;;;;;;10452830;28;20045;-53
2021/03/08 04:49:50;;;;;;;2.60;2.00;;;17.70;54.90;;;;;;10451644;28;20032;-54
2021/03/08 04:54:51;;;;;;;3.28;2.13;;;17.70;54.90;;;;;;10452193;28;20041;-53
2021/03/08 04:59:53;;;;;;;2.28;1.92;;;17.70;54.90;;;;;;10453972;28;20029;-54
2021/03/08 05:04:54;;;;;;;2.90;2.30;;;17.70;54.90;;;;;;10454255;28;20441;-54
2021/03/08 05:09:56;;;;;;;2.55;1.70;;;17.70;54.90;;;;;;10457114;28;20040;-54
2021/03/08 05:15:01;;;;;;;3.10;2.28;;;17.70;55.50;;;;;;10460349;28;20029;-54
2021/03/08 05:20:05;;;;;;;3.22;2.33;;;17.70;54.90;;;;;;10468242;28;20025;-54
2021/03/08 05:25:07;;;;;;;3.05;2.03;;;17.70;54.90;;;;;;10461051;28;20028;-54
2021/03/08 05:30:14;;;;;;;2.67;2.15;;;17.70;54.90;;;;;;10461184;28;20116;-54
2021/03/08 05:35:16;;;;;;;3.03;1.95;;;17.70;54.90;;;;;;10459459;28;20040;-55
2021/03/08 05:40:44;;;;;;;3.17;2.00;;;17.70;54.80;;;;;;10461227;28;20423;-54
2021/03/08 05:46:03;;;;;;;2.83;2.15;;;17.70;54.90;;;;;;10460051;28;20112;-54
2021/03/08 05:51:53;;;;;;;3.67;2.13;;;17.70;54.90;;;;;;10473108;28;20029;-54
2021/03/08 05:57:25;;;;;;;3.13;2.30;;;17.70;54.80;;;;;;10479017;28;20372;-53
2021/03/08 06:02:57;;;;;;;3.15;2.45;;;17.70;54.80;;;;;;10482872;28;20033;-54
2021/03/08 06:08:49;;;;;;;4.03;2.38;;;17.70;54.70;;;;;;10482377;28;20037;-54
2021/03/08 06:13:58;;;;;;;2.97;2.33;;;17.70;54.70;;;;;;10448189;28;20067;-57
2021/03/08 06:19:01;;;;;;;5.15;2.30;;;17.70;54.70;;;;;;10456195;28;20063;-56
2021/03/08 06:24:05;;;;;;;3.63;2.35;;;17.70;55.80;;;;;;10453774;28;20077;-54
2021/03/08 06:29:08;;;;;;;5.55;3.03;;;17.70;55.90;;;;;;10466598;28;21579;-55
2021/03/08 06:34:08;;;;;;;5.20;2.38;;;17.70;56.10;;;;;;10453170;28;20029;-58
2021/03/08 06:39:10;;;;;;;6.47;3.22;;;17.80;56.40;;;;;;10456630;28;20124;-58
2021/03/08 06:44:11;;;;;;;5.68;3.20;;;17.70;56.80;;;;;;10459428;28;20418;-57
2021/03/08 06:49:12;;;;;;;10.48;2.78;;;17.80;56.20;;;;;;10477070;28;20036;-57
2021/03/08 06:54:18;;;;;;;11.32;3.15;;;17.80;57.00;;;;;;10456436;28;20025;-57
2021/03/08 06:59:18;;;;;;;6.13;3.00;;;17.80;57.00;;;;;;10455206;28;20035;-57
2021/03/08 07:04:23;;;;;;;8.02;3.17;;;17.80;56.40;;;;;;10457461;28;20533;-58
2021/03/08 07:09:25;;;;;;;8.85;3.50;;;17.80;56.30;;;;;;10457310;28;20033;-59
2021/03/08 07:14:25;;;;;;;8.00;3.88;;;17.70;56.00;;;;;;10453128;28;20405;-59
2021/03/08 07:19:26;;;;;;;8.27;3.72;;;17.70;55.60;;;;;;10460807;28;20031;-58
2021/03/08 07:24:27;;;;;;;4.82;2.88;;;17.70;55.40;;;;;;10459298;28;20036;-59
2021/03/08 07:29:27;;;;;;;9.00;3.55;;;17.70;55.40;;;;;;10450579;28;20099;-59
2021/03/08 07:34:43;;;;;;;7.30;3.80;;;17.70;55.40;;;;;;10453543;28;20072;-58
2021/03/08 07:39:54;;;;;;;7.32;4.15;;;17.70;55.20;;;;;;10464452;28;20350;-57
2021/03/08 07:44:54;;;;;;;12.13;4.28;;;17.70;55.00;;;;;;10460489;28;20044;-58
2021/03/08 07:49:55;;;;;;;12.25;3.50;;;17.70;55.00;;;;;;10469268;28;20028;-59
2021/03/08 07:55:02;;;;;;;14.18;5.30;;;17.70;55.10;;;;;;10474810;28;20083;-59
2021/03/08 08:00:04;;;;;;;15.93;5.82;;;17.70;55.10;;;;;;10471009;28;20040;-59
2021/03/08 08:05:06;;;;;;;14.43;5.32;;;17.60;54.30;;;;;;10451772;28;20031;-58
2021/03/08 08:10:08;;;;;;;25.95;6.10;;;17.60;54.50;;;;;;10448729;28;20041;-58
2021/03/08 08:15:11;;;;;;;14.27;3.92;;;17.60;54.50;;;;;;10465315;28;20553;-58
2021/03/08 08:20:13;;;;;;;9.80;4.70;;;17.60;55.00;;;;;;10474955;28;20033;-58
2021/03/08 08:25:15;;;;;;;7.93;4.20;;;17.70;55.10;;;;;;10446244;28;20109;-59
2021/03/08 08:30:17;;;;;;;8.90;4.25;;;17.60;55.10;;;;;;10442822;28;20043;-58
2021/03/08 08:35:21;;;;;;;15.27;5.03;;;17.60;55.30;;;;;;10440087;28;20021;-58
2021/03/08 08:40:22;;;;;;;10.18;4.47;;;17.60;55.40;;;;;;10471205;28;20036;-58
2021/03/08 08:45:32;;;;;;;10.35;3.95;;;17.50;55.30;;;;;;10467510;28;20041;-59
2021/03/08 08:50:53;;;;;;;7.43;3.70;;;17.50;55.40;;;;;;10482071;28;20032;-58
2021/03/08 08:55:54;;;;;;;8.55;3.97;;;17.50;55.40;;;;;;10480414;28;20060;-59
2021/03/08 09:06:56;;;;;;;8.95;3.80;;;17.50;55.60;;;;;;10476050;28;20497;-56
2021/03/08 09:12:08;;;;;;;7.90;3.20;;;17.50;55.40;;;;;;10457512;28;20098;-54
2021/03/08 09:17:31;;;;;;;11.48;3.90;;;17.50;55.50;;;;;;10474307;28;20029;-54
2021/03/08 09:22:35;;;;;;;7.28;3.67;;;17.50;55.30;;;;;;10454985;28;20029;-55
2021/03/08 09:27:58;;;;;;;6.80;4.22;;;17.50;55.10;;;;;;10438665;28;20132;-55
2021/03/08 09:33:05;;;;;;;4.38;3.03;;;17.50;55.00;;;;;;10455925;28;20039;-54
2021/03/08 09:38:21;;;;;;;5.28;3.45;;;17.50;54.90;;;;;;10458556;28;20156;-55
2021/03/08 09:43:36;;;;;;;7.88;3.72;;;17.60;54.90;;;;;;10453666;28;20451;-55
2021/03/08 09:48:41;;;;;;;6.90;3.50;;;17.60;54.80;;;;;;10470134;28;20048;-55
2021/03/08 09:53:47;;;;;;;5.35;3.25;;;17.60;54.80;;;;;;10447590;28;20045;-55
2021/03/08 09:59:09;;;;;;;7.28;3.60;;;17.50;55.00;;;;;;10451553;28;20033;-55
2021/03/08 10:04:17;;;;;;;5.32;3.20;;;17.60;55.20;;;;;;10467746;28;20041;-55
2021/03/08 10:09:21;;;;;;;5.18;3.55;;;17.50;56.10;;;;;;10474252;28;20025;-54
2021/03/08 10:14:27;;;;;;;9.18;4.28;;;17.50;56.00;;;;;;10454614;28;20045;-57
2021/03/08 10:19:28;;;;;;;7.38;3.60;;;17.50;55.60;;;;;;10452334;28;20040;-57
2021/03/08 10:24:37;;;;;;;7.10;4.03;;;17.40;55.60;;;;;;10446727;28;21310;-57
2021/03/08 10:29:39;;;;;;;7.63;3.92;;;17.40;55.40;;;;;;10462317;28;20128;-56
2021/03/08 10:34:41;;;;;;;6.47;3.67;;;17.40;55.30;;;;;;10469105;28;20041;-57
2021/03/08 10:39:43;;;;;;;4.63;3.47;;;17.40;55.30;;;;;;10474545;28;20020;-56
2021/03/08 10:44:44;;;;;;;6.00;3.40;;;17.40;55.10;;;;;;10469565;28;20037;-56
2021/03/08 10:49:54;;;;;;;5.90;3.50;;;17.50;55.10;;;;;;10469491;28;20383;-57
2021/03/08 10:54:55;;;;;;;6.03;3.55;;;17.50;55.10;;;;;;10468561;28;20029;-56
2021/03/08 10:59:57;;;;;;;8.85;3.50;;;17.50;55.10;;;;;;10469834;28;20074;-57
2021/03/08 11:05:14;;;;;;;5.25;3.28;;;17.50;55.00;;;;;;10471885;28;20104;-57
2021/03/08 11:10:15;;;;;;;4.05;3.15;;;17.50;55.00;;;;;;10464162;28;20053;-56
2021/03/08 11:15:22;;;;;;;6.15;3.33;;;17.50;55.00;;;;;;10449404;28;20028;-56
2021/03/08 11:20:31;;;;;;;5.80;3.40;;;17.50;54.80;;;;;;10477763;28;20021;-58
2021/03/08 11:25:39;;;;;;;6.03;3.25;;;17.50;55.90;;;;;;10473805;28;20037;-55
2021/03/08 11:30:50;;;;;;;6.57;3.50;;;17.50;56.00;;;;;;10470120;28;20485;-56
2021/03/08 11:35:52;;;;;;;4.15;3.00;;;17.50;56.50;;;;;;10466110;28;20032;-58
2021/03/08 11:40:54;;;;;;;4.65;3.13;;;17.50;56.80;;;;;;10475490;28;20369;-56
2021/03/08 11:45:56;;;;;;;5.63;3.00;;;17.50;57.10;;;;;;10459688;28;20029;-56
2021/03/08 11:50:56;;;;;;;8.80;3.45;;;17.50;57.00;;;;;;10456037;28;20808;-56
2021/03/08 11:55:57;;;;;;;6.18;3.25;;;17.40;56.80;;;;;;10456112;28;20043;-57
2021/03/08 12:01:01;;;;;;;4.85;3.63;;;17.40;56.10;;;;;;10456006;28;20055;-58
2021/03/08 12:06:01;;;;;;;5.85;3.72;;;17.40;56.90;;;;;;10455565;28;20106;-55
2021/03/08 12:11:04;;;;;;;8.57;3.83;;;17.30;56.10;;;;;;10453948;28;20033;-55
2021/03/08 12:16:05;;;;;;;6.35;3.30;;;17.40;56.00;;;;;;10455412;28;20021;-55
2021/03/08 12:21:06;;;;;;;6.85;4.25;;;17.40;55.90;;;;;;10454140;28;20478;-56
2021/03/08 12:26:07;;;;;;;7.18;3.30;;;17.40;55.90;;;;;;10455328;28;20567;-58
2021/03/08 12:31:08;;;;;;;5.50;3.35;;;17.40;55.90;;;;;;10454984;28;20064;-55
2021/03/08 12:36:09;;;;;;;4.32;3.08;;;17.40;55.80;;;;;;10449930;28;20381;-54
2021/03/08 12:41:10;;;;;;;4.32;2.90;;;17.40;55.70;;;;;;10475853;28;20028;-54
2021/03/08 12:46:10;;;;;;;6.28;3.45;;;17.50;55.60;;;;;;10455129;28;20033;-55
2021/03/08 12:51:11;;;;;;;8.27;3.15;;;17.50;55.60;;;;;;10455212;28;20068;-54
2021/03/08 12:56:12;;;;;;;4.10;3.17;;;17.50;56.30;;;;;;10454801;28;20599;-55
2021/03/08 13:01:13;;;;;;;5.22;3.47;;;17.40;55.60;;;;;;10454768;28;20035;-56
2021/03/08 13:06:13;;;;;;;4.72;3.22;;;17.50;55.60;;;;;;10454250;28;20060;-55
2021/03/08 13:11:14;;;;;;;5.20;2.92;;;17.50;55.60;;;;;;10452630;28;20069;-55
2021/03/08 13:16:15;;;;;;;3.83;2.80;;;17.50;55.60;;;;;;10454417;28;20064;-55
2021/03/08 13:21:15;;;;;;;3.78;2.95;;;17.50;55.60;;;;;;10453013;28;20037;-55
2021/03/08 13:26:16;;;;;;;5.45;3.75;;;17.50;55.60;;;;;;10454264;28;20029;-53
2021/03/08 13:31:17;;;;;;;4.95;2.92;;;17.40;55.60;;;;;;10455030;28;20021;-56
2021/03/08 13:36:17;;;;;;;5.68;3.70;;;17.40;55.60;;;;;;10459463;28;20108;-55
2021/03/08 13:41:18;;;;;;;4.97;3.35;;;17.40;55.60;;;;;;10487555;28;20529;-55
2021/03/08 13:46:19;;;;;;;3.80;2.90;;;17.30;55.50;;;;;;10461009;28;20055;-54
2021/03/08 13:51:20;;;;;;;4.75;3.35;;;17.40;55.60;;;;;;10443445;28;20120;-56
2021/03/08 13:56:20;;;;;;;4.07;2.90;;;17.40;55.60;;;;;;10450046;28;20053;-56
2021/03/08 14:01:21;;;;;;;4.05;3.15;;;17.40;55.70;;;;;;10448973;28;20036;-55
2021/03/08 14:06:22;;;;;;;5.60;2.92;;;17.30;55.70;;;;;;10453638;28;20103;-55
2021/03/08 14:11:22;;;;;;;3.10;2.58;;;17.30;55.80;;;;;;10459126;28;20065;-55
2021/03/08 14:16:23;;;;;;;3.90;2.80;;;17.40;55.90;;;;;;10458683;28;20108;-55
2021/03/08 14:21:24;;;;;;;3.60;2.78;;;17.40;55.90;;;;;;10460346;28;20067;-54
2021/03/08 14:26:25;;;;;;;3.72;2.67;;;17.30;56.10;;;;;;10458242;28;20025;-55
2021/03/08 14:31:26;;;;;;;8.18;3.00;;;17.40;56.10;;;;;;10459243;28;20029;-54
2021/03/08 14:36:27;;;;;;;3.60;2.65;;;17.40;55.90;;;;;;10468446;28;20478;-55
2021/03/08 14:41:28;;;;;;;6.05;2.83;;;17.40;55.60;;;;;;10432028;28;20090;-54
2021/03/08 14:46:28;;;;;;;6.10;3.20;;;17.40;55.30;;;;;;10465741;28;20032;-54
2021/03/08 14:51:30;;;;;;;6.53;3.30;;;17.30;55.40;;;;;;10480194;28;20120;-55
2021/03/08 14:56:31;;;;;;;7.53;3.03;;;17.40;55.80;;;;;;10479065;28;20230;-57
2021/03/08 15:01:31;;;;;;;8.05;3.55;;;17.40;56.80;;;;;;10477580;28;20155;-54
2021/03/08 15:06:32;;;;;;;7.97;3.25;;;17.50;56.10;;;;;;10478709;28;20032;-55
2021/03/08 15:11:33;;;;;;;9.20;3.92;;;17.50;56.20;;;;;;10466233;28;20175;-54
2021/03/08 15:16:33;;;;;;;9.40;3.75;;;17.40;56.30;;;;;;10470811;28;20021;-54
2021/03/08 15:21:34;;;;;;;12.43;3.92;;;17.40;56.20;;;;;;10478082;28;20025;-53
2021/03/08 15:26:35;;;;;;;10.50;3.42;;;17.50;56.40;;;;;;10476823;28;20036;-54
2021/03/08 15:31:36;;;;;;;8.60;3.40;;;17.50;56.50;;;;;;10477987;28;20100;-53
2021/03/08 15:36:36;;;;;;;9.55;3.58;;;17.50;56.90;;;;;;10492425;28;20032;-55
2021/03/08 15:41:37;;;;;;;10.07;3.95;;;17.50;57.20;;;;;;10475659;28;20028;-55
2021/03/08 15:46:38;;;;;;;9.25;4.00;;;17.60;56.90;;;;;;10478548;28;20115;-54
2021/03/08 15:51:38;;;;;;;11.55;3.90;;;17.60;57.20;;;;;;10467110;28;20028;-55
2021/03/08 15:56:40;;;;;;;14.18;4.30;;;17.70;57.40;;;;;;10464563;28;20124;-56
2021/03/08 16:01:40;;;;;;;16.90;4.43;;;17.70;57.30;;;;;;10447580;28;20029;-56
2021/03/08 16:06:41;;;;;;;11.25;3.80;;;17.70;56.70;;;;;;10455773;28;20029;-55
2021/03/08 16:11:42;;;;;;;10.82;3.90;;;17.70;55.80;;;;;;10470300;28;20119;-55
2021/03/08 16:16:43;;;;;;;9.82;4.07;;;17.70;55.30;;;;;;10484924;28;20455;-55
2021/03/08 16:21:43;;;;;;;7.10;3.75;;;17.80;55.50;;;;;;10472757;28;20028;-56
2021/03/08 16:26:44;;;;;;;11.90;5.05;;;17.90;55.70;;;;;;10468816;28;20045;-56
2021/03/08 16:31:45;;;;;;;9.93;4.55;;;17.90;55.90;;;;;;10453286;28;20524;-57
2021/03/08 16:36:45;;;;;;;18.70;5.43;;;18.00;55.90;;;;;;10488674;28;20063;-56
2021/03/08 16:41:46;;;;;;;16.15;6.45;;;18.00;56.70;;;;;;10461748;28;20071;-55
2021/03/08 16:46:47;;;;;;;10.55;6.25;;;18.00;56.20;;;;;;10453781;28;20102;-56
2021/03/08 16:51:48;;;;;;;29.13;14.00;;;18.00;55.30;;;;;;10456149;28;20115;-56
2021/03/08 16:56:49;;;;;;;25.02;16.90;;;18.00;56.20;;;;;;10476918;28;20067;-57
2021/03/08 17:01:50;;;;;;;40.13;24.60;;;18.10;57.60;;;;;;10464185;28;20520;-57
2021/03/08 17:06:50;;;;;;;32.65;20.08;;;18.10;58.60;;;;;;10501111;28;20273;-55
2021/03/08 17:11:51;;;;;;;26.25;16.83;;;18.10;59.20;;;;;;10464947;28;20072;-55
2021/03/08 17:16:52;;;;;;;26.35;16.80;;;18.20;60.30;;;;;;10507443;28;20064;-56
2021/03/08 17:21:52;;;;;;;24.50;16.40;;;18.20;59.60;;;;;;10496201;28;20040;-56
2021/03/08 17:26:53;;;;;;;23.63;15.88;;;18.10;59.40;;;;;;10469333;28;20044;-56
2021/03/08 17:31:54;;;;;;;22.58;15.40;;;18.10;59.80;;;;;;10479615;28;20031;-54
2021/03/08 17:36:54;;;;;;;20.92;15.10;;;18.10;60.00;;;;;;10493304;28;20056;-57
2021/03/08 17:41:55;;;;;;;20.58;14.73;;;18.10;61.00;;;;;;10478475;28;20040;-57
2021/03/08 17:46:56;;;;;;;31.25;13.60;;;18.10;61.20;;;;;;10485520;28;20096;-57
2021/03/08 17:51:57;;;;;;;19.75;14.52;;;18.00;61.10;;;;;;10479321;28;20032;-57
2021/03/08 17:56:58;;;;;;;22.67;14.00;;;18.00;61.10;;;;;;10477324;28;20025;-57
2021/03/08 18:01:58;;;;;;;21.25;13.90;;;17.90;61.00;;;;;;10476842;28;20056;-56
2021/03/08 18:07:02;;;;;;;20.10;14.63;;;17.80;60.60;;;;;;10468964;28;20377;-55
2021/03/08 18:12:03;;;;;;;24.05;12.90;;;17.80;60.50;;;;;;10466633;28;20041;-56
2021/03/08 18:17:04;;;;;;;19.55;12.13;;;17.70;60.40;;;;;;10474999;28;20017;-56
2021/03/08 18:22:05;;;;;;;17.92;11.95;;;17.70;60.90;;;;;;10476608;28;20117;-56
2021/03/08 18:27:08;;;;;;;17.60;11.73;;;17.60;61.10;;;;;;10475643;28;20064;-57
2021/03/08 18:32:09;;;;;;;27.60;12.57;;;17.70;61.10;;;;;;10477835;28;20029;-57
2021/03/08 18:37:09;;;;;;;21.80;11.85;;;17.70;61.40;;;;;;10472290;28;20405;-56
2021/03/08 18:42:10;;;;;;;29.10;13.70;;;17.60;61.10;;;;;;10465220;28;20123;-59
2021/03/08 18:47:11;;;;;;;18.00;11.45;;;17.70;61.90;;;;;;10472045;28;20040;-55
2021/03/08 18:52:12;;;;;;;18.50;11.02;;;17.70;61.60;;;;;;10466200;28;20163;-55
2021/03/08 18:57:16;;;;;;;16.55;11.05;;;17.70;61.40;;;;;;10472737;28;20154;-55
2021/03/08 19:02:17;;;;;;;13.63;10.93;;;17.70;61.70;;;;;;10470111;28;20377;-55
2021/03/08 19:07:18;;;;;;;17.80;10.75;;;17.60;60.70;;;;;;10454900;28;20069;-55
2021/03/08 19:12:18;;;;;;;17.80;11.68;;;17.60;60.50;;;;;;10451464;28;20037;-55
2021/03/08 19:17:19;;;;;;;16.17;10.63;;;17.60;60.30;;;;;;10455010;28;20459;-55
2021/03/08 19:22:20;;;;;;;13.85;10.10;;;17.70;60.10;;;;;;10473960;28;20025;-55
2021/03/08 19:27:21;;;;;;;14.55;10.07;;;17.70;59.90;;;;;;10456376;28;20112;-56
2021/03/08 19:32:22;;;;;;;10.95;9.57;;;17.70;59.80;;;;;;10455198;28;20036;-56
2021/03/08 19:37:23;;;;;;;15.13;9.68;;;17.70;59.50;;;;;;10455789;28;20033;-55
2021/03/08 19:42:25;;;;;;;12.05;8.77;;;17.70;59.30;;;;;;10461182;28;20111;-55
2021/03/08 19:47:26;;;;;;;12.93;8.85;;;17.70;59.20;;;;;;10455232;28;20045;-55
2021/03/08 19:52:27;;;;;;;16.15;9.55;;;17.70;59.10;;;;;;10455135;28;20481;-55
2021/03/08 19:57:28;;;;;;;11.23;9.38;;;17.70;59.00;;;;;;10454319;28;20036;-55
2021/03/08 20:02:28;;;;;;;11.77;8.57;;;17.70;58.90;;;;;;10466361;28;20033;-55
2021/03/08 20:07:29;;;;;;;12.20;8.40;;;17.70;58.90;;;;;;10455185;28;20067;-56
2021/03/08 20:12:30;;;;;;;12.90;7.82;;;17.70;58.80;;;;;;10452257;28;20041;-55
2021/03/08 20:17:30;;;;;;;17.73;8.43;;;17.70;58.60;;;;;;10461825;28;20039;-55
2021/03/08 20:22:31;;;;;;;10.57;8.07;;;17.70;58.50;;;;;;10475461;28;20061;-55
2021/03/08 20:27:32;;;;;;;10.98;7.45;;;17.70;58.40;;;;;;10453772;28;20756;-55
2021/03/08 20:32:33;;;;;;;10.43;8.07;;;17.70;58.10;;;;;;10451503;28;20081;-55
2021/03/08 20:37:34;;;;;;;8.80;7.10;;;17.70;58.00;;;;;;10458613;28;20532;-55
2021/03/08 20:42:35;;;;;;;8.32;6.82;;;17.70;57.80;;;;;;10459493;28;20036;-55
2021/03/08 20:47:39;;;;;;;10.10;6.70;;;17.70;57.60;;;;;;10463722;28;20075;-55
2021/03/08 20:52:40;;;;;;;11.25;6.53;;;17.70;57.50;;;;;;10462470;28;20037;-55
2021/03/08 20:57:41;;;;;;;8.10;6.20;;;17.70;57.40;;;;;;10463800;28;20021;-55
2021/03/08 21:02:42;;;;;;;11.13;6.60;;;17.70;57.20;;;;;;10464169;28;20028;-55
2021/03/08 21:07:43;;;;;;;8.63;6.20;;;17.70;57.10;;;;;;10460424;28;20369;-55
2021/03/08 21:12:45;;;;;;;8.20;5.72;;;17.70;57.00;;;;;;10461798;28;20045;-55
2021/03/08 21:17:46;;;;;;;8.20;5.90;;;17.70;56.90;;;;;;10469066;28;20103;-54
2021/03/08 21:22:47;;;;;;;7.18;5.25;;;17.70;56.70;;;;;;10475918;28;20040;-55
2021/03/08 21:27:50;;;;;;;8.13;5.32;;;17.70;56.70;;;;;;10469113;28;20033;-55
2021/03/08 21:32:51;;;;;;;6.05;5.22;;;17.70;56.60;;;;;;10484891;28;20669;-55
2021/03/08 21:37:52;;;;;;;6.15;4.38;;;17.70;56.60;;;;;;10461681;28;20115;-56
2021/03/08 21:42:53;;;;;;;6.00;4.68;;;17.70;56.50;;;;;;10475738;28;20193;-56
2021/03/08 21:47:54;;;;;;;7.03;5.25;;;17.70;56.40;;;;;;10461451;28;20063;-55
2021/03/08 21:52:54;;;;;;;7.15;4.40;;;17.70;56.30;;;;;;10459991;28;20376;-55
2021/03/08 21:57:55;;;;;;;5.93;4.28;;;17.70;56.30;;;;;;10474144;28;20400;-55
2021/03/08 22:02:56;;;;;;;5.80;4.25;;;17.70;56.20;;;;;;10470393;28;20358;-55
2021/03/08 22:07:56;;;;;;;7.22;4.72;;;17.70;56.10;;;;;;10460237;28;20033;-55
2021/03/08 22:12:57;;;;;;;6.55;4.45;;;17.70;56.00;;;;;;10465731;28;20063;-55
2021/03/08 22:17:58;;;;;;;9.68;4.90;;;17.70;55.90;;;;;;10494378;28;20021;-56
2021/03/08 22:22:58;;;;;;;6.38;4.60;;;17.70;55.80;;;;;;10460149;28;20517;-55
2021/03/08 22:27:59;;;;;;;5.60;4.03;;;17.70;55.80;;;;;;10459746;28;20108;-55
2021/03/08 22:33:00;;;;;;;5.95;4.25;;;17.70;55.80;;;;;;10478646;28;20041;-55
2021/03/08 22:38:01;;;;;;;4.93;3.65;;;17.70;55.80;;;;;;10494437;28;20424;-55
2021/03/08 22:43:01;;;;;;;5.22;3.67;;;17.70;55.80;;;;;;10459607;28;20048;-55
2021/03/08 22:48:03;;;;;;;6.13;3.58;;;17.70;55.80;;;;;;10460825;28;20034;-55
2021/03/08 22:53:04;;;;;;;6.40;3.92;;;17.60;55.70;;;;;;10482829;28;20108;-55
2021/03/08 22:58:05;;;;;;;5.78;3.47;;;17.70;55.70;;;;;;10463406;28;20431;-55
2021/03/08 23:03:05;;;;;;;8.77;3.92;;;17.70;55.50;;;;;;10467442;28;20044;-55
2021/03/08 23:08:06;;;;;;;5.00;3.75;;;17.70;55.50;;;;;;10458280;28;20040;-55
2021/03/08 23:13:07;;;;;;;5.00;3.30;;;17.70;55.50;;;;;;10466086;28;20040;-55
2021/03/08 23:18:08;;;;;;;4.15;3.22;;;17.70;55.40;;;;;;10486667;28;20077;-55
2021/03/08 23:23:09;;;;;;;4.88;3.67;;;17.70;55.40;;;;;;10476674;28;20374;-54
2021/03/08 23:28:10;;;;;;;4.55;3.45;;;17.70;55.40;;;;;;10457557;28;20119;-55
2021/03/08 23:33:11;;;;;;;4.20;3.55;;;17.70;55.40;;;;;;10470637;28;20485;-54
2021/03/08 23:38:12;;;;;;;5.18;3.50;;;17.70;55.30;;;;;;10485966;28;20029;-54
2021/03/08 23:43:12;;;;;;;4.57;3.38;;;17.60;55.30;;;;;;10479621;28;20041;-55
2021/03/08 23:48:13;;;;;;;5.78;3.33;;;17.70;55.30;;;;;;10477436;28;20101;-55
2021/03/08 23:53:14;;;;;;;5.28;3.70;;;17.70;55.30;;;;;;10484442;28;20040;-55
2021/03/08 23:58:15;;;;;;;5.55;3.58;;;17.70;55.20;;;;;;10498091;28;20108;-55
